Observations for HUMBERSIDE, United Kingdom (EGNJ)

EGNJ 250320Z AUTO 21008KT 9999 NCD 01/00 Q1010  
EGNJ 250250Z AUTO 22005KT 8000 NCD 01/00 Q1010  
EGNJ 250220Z AUTO 25003KT 9999 FEW011/// 02/01 Q1011
EGNJ 250150Z AUTO 22006KT 9999 FEW006/// 02/01 Q1010
EGNJ 250120Z AUTO 25007KT 9999 NCD 02/01 Q1010  
EGNJ 250050Z AUTO 23008KT 9999 NCD 02/01 Q1010  
EGNJ 250020Z AUTO 24006KT 9999 FEW009/// 02/01 Q1010
EGNJ 242350Z AUTO 23008KT 9999 NCD 02/01 Q1010  
EGNJ 242320Z AUTO 21007KT 9999 NCD 02/01 Q1010  
EGNJ 242250Z AUTO 20008KT 9999 NCD 02/01 Q1010  
EGNJ 242220Z AUTO 20007KT 9999 FEW022/// 02/01 Q1010
EGNJ 242150Z AUTO 21009KT 9999 FEW023/// SCT029/// BKN034/// 03/02 Q1010
EGNJ 242120Z 23005KT 9999 FEW026 SCT032 BKN040 03/02 Q1011  
EGNJ 242050Z 20006KT 9999 FEW026 SCT032 BKN040 02/01 Q1010  
EGNJ 242020Z 21005KT 9999 FEW026 SCT032 BKN040 02/02 Q1011  
EGNJ 241950Z 22004KT 9999 FEW026 SCT032 BKN040 04/02 Q1010  
EGNJ 241920Z 25006KT 9999 FEW026 SCT032 BKN040 04/02 Q1011  
EGNJ 241850Z 20009KT 9999 FEW048 02/01 Q1010
EGNJ 241820Z 20011KT 9999 FEW048 03/01 Q1010
EGNJ 241750Z 20010KT 9999 FEW030 02/01 Q1010
EGNJ 241720Z 21010KT 9999 FEW030 04/02 Q1010
EGNJ 241650Z 20009KT 9999 FEW030 03/01 Q1010
EGNJ 241620Z 19007KT 9999 FEW030 03/02 Q1010
EGNJ 241550Z 22008KT 9999 FEW030 07/02 Q1010
EGNJ 241520Z 23008KT 9999 FEW030 08/02 Q1010
EGNJ 241450Z 23010KT 9999 FEW015 08/03 Q1010
EGNJ 241420Z 24009KT 9999 FEW015 08/03 Q1009
EGNJ 241350Z 24011KT 9999 FEW015 08/02 Q1009
EGNJ 241320Z 25012KT 9999 FEW015 08/02 Q1009
EGNJ 241250Z 25012KT 9999 FEW013 08/02 Q1009
EGNJ 241220Z 24011KT 9999 FEW013 07/02 Q1009
EGNJ 241150Z 24009KT CAVOK 07/02 Q1009  
EGNJ 241120Z 23008KT CAVOK 07/03 Q1009  
EGNJ 241050Z 22008KT CAVOK 06/03 Q1009  
EGNJ 241020Z 25007KT CAVOK 06/02 Q1009  
EGNJ 240950Z 24007KT CAVOK 05/02 Q1009  
EGNJ 240920Z 22006KT CAVOK 04/02 Q1008  
EGNJ 240850Z VRB03KT CAVOK 02/01 Q1008  
EGNJ 240820Z 18003KT CAVOK 01/01 Q1008  
EGNJ 240750Z 20006KT CAVOK 00/M00 Q1008 
EGNJ 240720Z 23004KT CAVOK 02/01 Q1007  
EGNJ 240650Z 22008KT CAVOK 02/01 Q1007  
EGNJ 240620Z VRB01KT CAVOK 02/01 Q1007  
EGNJ 240550Z VRB03KT CAVOK 02/01 Q1006  
EGNJ 240520Z AUTO VRB02KT 9999 NCD 03/02 Q1006  
EGNJ 240450Z AUTO 21005KT 180V250 9999 NCD 03/02 Q1006  
EGNJ 240420Z AUTO 26004KT 9999 NCD 03/02 Q1005  
EGNJ 240350Z AUTO VRB03KT 9999 NCD 03/02 Q1005  
EGNJ 240320Z AUTO 20006KT 9999 NCD 03/02 Q1005  
EGNJ 240250Z AUTO 21007KT 9999 NCD 04/02 Q1005